Time;durP1;ratioP1;P1;durP2;ratioP2;P2;SDS_P1;SDS_P2;PMS_P1;PMS_P2;Temp;Humidity;BMP_temperature;BMP_pressure;BME280_temperature;BME280_humidity;BME280_pressure;Samples;Min_cycle;Max_cycle;Signal;HPM_P1;HPM_P2
2022/08/23 00:01:43;;;;;;;4.20;1.20;;;;;;;17.60;51.10;101511.22;4980725;28;20037;-77
2022/08/23 00:04:13;;;;;;;1.60;1.20;;;;;;;17.61;50.77;101511.13;4978640;28;20130;-77
2022/08/23 00:06:40;;;;;;;5.63;1.27;;;;;;;17.63;50.90;101513.69;4978778;28;20049;-79
2022/08/23 00:09:05;;;;;;;6.35;2.33;;;;;;;17.54;50.71;101514.25;4956540;28;20030;-79
2022/08/23 00:11:40;;;;;;;5.85;1.70;;;;;;;17.45;51.42;101508.53;4979298;28;20930;-77
2022/08/23 00:14:20;;;;;;;4.25;1.20;;;;;;;17.40;51.18;101509.72;4974872;28;20042;-77
2022/08/23 00:16:46;;;;;;;4.18;1.40;;;;;;;17.30;51.39;101505.94;4991407;28;20030;-76
2022/08/23 00:19:15;;;;;;;4.50;1.77;;;;;;;17.35;51.18;101504.72;4980226;28;20092;-76
2022/08/23 00:21:42;;;;;;;3.92;1.38;;;;;;;17.32;51.47;101498.78;4965573;28;20503;-78
2022/08/23 00:24:10;;;;;;;2.92;1.42;;;;;;;17.19;51.66;101502.13;4978528;28;20160;-76
2022/08/23 00:26:57;;;;;;;8.50;1.55;;;;;;;17.05;51.71;101502.09;4977321;28;20041;-76
2022/08/23 00:29:27;;;;;;;4.30;2.17;;;;;;;16.93;52.39;101505.41;4960119;28;20097;-77
2022/08/23 00:31:53;;;;;;;4.65;1.85;;;;;;;16.91;52.81;101499.38;4987831;28;20477;-78
2022/08/23 00:34:20;;;;;;;4.07;1.50;;;;;;;16.94;52.38;101499.22;4980247;28;20037;-78
2022/08/23 00:36:46;;;;;;;2.95;1.13;;;;;;;16.94;52.26;101501.84;4969883;28;20095;-77
2022/08/23 00:39:12;;;;;;;4.68;2.03;;;;;;;16.82;52.88;101498.97;4981838;28;20026;-77
2022/08/23 00:41:38;;;;;;;4.30;2.25;;;;;;;16.85;52.94;101494.47;4985613;28;20551;-78
2022/08/23 00:49:54;;;;;;;4.38;2.50;;;;;;;16.94;52.45;101493.94;4961794;28;20049;-76
2022/08/23 00:52:28;;;;;;;3.80;1.75;;;;;;;16.94;52.05;101489.50;4971091;28;20045;-77
2022/08/23 00:54:54;;;;;;;8.15;2.47;;;;;;;16.86;52.18;101496.16;5000175;28;20671;-77
2022/08/23 00:57:21;;;;;;;7.50;2.60;;;;;;;16.84;51.82;101493.59;4985102;28;20133;-76
2022/08/23 00:59:46;;;;;;;5.80;2.58;;;;;;;16.88;51.83;101494.28;4971595;28;20044;-77
2022/08/23 01:02:13;;;;;;;2.55;2.33;;;;;;;16.84;51.70;101488.31;4967901;28;20038;-77
2022/08/23 01:05:00;;;;;;;5.13;2.60;;;;;;;16.85;51.47;101489.19;4960108;28;20026;-77
2022/08/23 01:07:53;;;;;;;5.82;2.45;;;;;;;16.82;51.08;101490.19;4975153;28;20530;-78
2022/08/23 01:10:29;;;;;;;5.63;2.92;;;;;;;16.81;50.54;101489.34;4953651;28;20118;-77
2022/08/23 01:13:05;;;;;;;4.15;2.22;;;;;;;16.75;50.62;101492.31;4979029;28;20069;-76
2022/08/23 01:15:44;;;;;;;3.47;1.42;;;;;;;16.78;50.40;101486.88;4968918;28;20520;-78
2022/08/23 01:18:13;;;;;;;3.08;2.63;;;;;;;16.72;50.04;101492.47;4967581;28;20064;-76
2022/08/23 01:20:57;;;;;;;2.25;2.00;;;;;;;16.71;49.67;101488.13;4983546;28;20165;-77
2022/08/23 01:23:33;;;;;;;4.97;2.17;;;;;;;16.71;49.36;101493.41;4985467;28;20049;-77
2022/08/23 01:25:59;;;;;;;1.75;1.60;;;;;;;16.77;48.88;101494.88;4966231;28;20640;-76
2022/08/23 01:28:25;;;;;;;5.40;2.00;;;;;;;16.71;48.82;101493.41;4947543;28;20494;-77
2022/08/23 01:30:51;;;;;;;6.03;1.90;;;;;;;16.74;48.39;101497.66;4966306;28;20041;-76
2022/08/23 01:33:18;;;;;;;3.50;1.92;;;;;;;16.58;48.46;101495.03;4963708;28;20394;-77
2022/08/23 01:35:48;;;;;;;3.10;2.28;;;;;;;16.61;47.99;101497.50;4951670;28;20026;-78
2022/08/23 01:38:14;;;;;;;1.98;1.77;;;;;;;16.60;48.01;101491.38;4975934;28;20065;-77
2022/08/23 01:40:42;;;;;;;5.22;2.05;;;;;;;16.57;47.52;101496.81;4969962;28;20060;-77
2022/08/23 01:43:08;;;;;;;2.67;1.70;;;;;;;16.59;47.77;101500.22;4973686;28;20034;-77
2022/08/23 01:45:36;;;;;;;3.05;1.90;;;;;;;16.58;47.62;101492.41;4985231;28;20045;-76
2022/08/23 01:48:04;;;;;;;2.92;1.63;;;;;;;16.44;48.15;101501.06;4968927;28;20031;-76
2022/08/23 01:50:30;;;;;;;2.70;1.67;;;;;;;16.32;47.98;101497.31;4971660;28;20118;-78
2022/08/23 01:52:56;;;;;;;2.80;2.00;;;;;;;16.25;48.05;101495.94;4966894;28;20050;-77
2022/08/23 01:55:24;;;;;;;3.25;1.45;;;;;;;16.24;47.83;101499.50;4965959;28;20050;-77
2022/08/23 01:57:54;;;;;;;3.58;1.75;;;;;;;16.24;48.04;101504.78;4972268;28;20038;-77
2022/08/23 02:00:23;;;;;;;2.10;1.48;;;;;;;16.16;48.04;101507.84;4958936;28;20041;-77
2022/08/23 02:02:50;;;;;;;4.00;1.90;;;;;;;16.16;48.12;101501.72;4956262;28;20060;-77
2022/08/23 02:05:15;;;;;;;2.08;1.33;;;;;;;16.17;48.32;101503.41;4965057;28;20674;-77
2022/08/23 02:07:41;;;;;;;4.00;1.42;;;;;;;16.05;48.22;101498.81;4958630;28;20038;-78
2022/08/23 02:10:08;;;;;;;4.45;2.05;;;;;;;15.87;48.40;101509.38;4947544;28;20043;-77
2022/08/23 02:12:34;;;;;;;2.97;1.02;;;;;;;15.79;48.92;101504.50;4949198;28;20043;-77
2022/08/23 02:15:10;;;;;;;5.50;1.30;;;;;;;15.84;48.58;101506.03;4951712;28;20039;-77
2022/08/23 02:17:39;;;;;;;2.75;1.33;;;;;;;15.83;48.64;101507.81;4964372;28;20049;-77
2022/08/23 02:20:06;;;;;;;5.47;1.20;;;;;;;15.77;49.14;101510.75;4962355;28;20038;-77
2022/08/23 02:22:32;;;;;;;2.88;1.73;;;;;;;15.64;49.13;101512.31;4951293;28;20042;-77
2022/08/23 02:24:59;;;;;;;2.97;1.40;;;;;;;15.54;49.34;101510.16;4964278;28;20125;-77
2022/08/23 02:27:24;;;;;;;2.55;1.30;;;;;;;15.54;49.43;101504.06;4964717;28;20121;-76
2022/08/23 02:29:50;;;;;;;2.08;1.42;;;;;;;15.45;49.51;101508.00;4950416;28;20090;-78
2022/08/23 02:32:17;;;;;;;3.47;1.45;;;;;;;15.45;49.41;101505.38;4964217;28;20042;-78
2022/08/23 02:34:44;;;;;;;4.13;1.63;;;;;;;15.34;49.66;101513.81;4961796;28;20035;-78
2022/08/23 02:37:12;;;;;;;3.55;2.08;;;;;;;15.27;49.76;101507.16;4970430;28;20074;-77
2022/08/23 02:39:39;;;;;;;4.07;0.85;;;;;;;15.27;49.50;101511.56;4962565;28;20043;-77
2022/08/23 02:42:07;;;;;;;2.60;1.45;;;;;;;15.26;49.53;101500.19;4957255;28;20042;-77
2022/08/23 02:44:36;;;;;;;2.45;1.48;;;;;;;15.24;49.83;101502.03;4968386;28;20141;-77
2022/08/23 02:47:01;;;;;;;3.75;2.20;;;;;;;15.13;49.91;101509.59;4992178;28;20150;-75
2022/08/23 02:49:28;;;;;;;3.10;1.65;;;;;;;15.06;50.14;101508.16;4950619;28;20039;-76
2022/08/23 02:51:54;;;;;;;5.75;2.08;;;;;;;15.03;50.17;101503.91;4962648;28;20057;-76
2022/08/23 02:54:20;;;;;;;4.10;2.00;;;;;;;15.00;50.15;101509.34;4966039;28;20034;-77
2022/08/23 02:56:46;;;;;;;5.35;1.90;;;;;;;14.94;50.22;101510.47;4948884;28;20511;-78
2022/08/23 02:59:12;;;;;;;1.90;1.52;;;;;;;14.92;50.46;101511.47;4985999;28;20037;-78
2022/08/23 03:01:39;;;;;;;3.83;1.80;;;;;;;14.84;50.50;101505.75;4973285;28;20022;-77
2022/08/23 03:04:17;;;;;;;5.00;2.63;;;;;;;14.87;50.65;101513.47;4963747;28;20114;-78
2022/08/23 03:06:44;;;;;;;4.22;2.70;;;;;;;14.91;50.14;101510.63;4964131;28;20129;-77
2022/08/23 03:09:10;;;;;;;4.05;2.28;;;;;;;15.02;50.13;101510.13;4997030;28;20054;-78
2022/08/23 03:11:36;;;;;;;4.75;2.53;;;;;;;15.02;49.75;101510.13;4998480;28;20040;-77
2022/08/23 03:14:03;;;;;;;5.32;2.70;;;;;;;14.94;49.85;101509.63;4960732;28;20425;-78
2022/08/23 03:16:29;;;;;;;6.72;2.53;;;;;;;15.05;49.50;101511.75;4956644;28;20497;-78
2022/08/23 03:18:54;;;;;;;6.78;2.78;;;;;;;15.10;49.00;101509.72;4977618;28;20104;-77
2022/08/23 03:21:21;;;;;;;4.03;2.67;;;;;;;15.15;48.90;101508.59;4982091;28;20026;-78
2022/08/23 03:23:47;;;;;;;3.78;2.58;;;;;;;15.11;48.70;101514.91;4985438;28;20043;-77
2022/08/23 03:26:14;;;;;;;2.88;2.03;;;;;;;15.15;48.88;101502.47;4967221;28;20041;-78
2022/08/23 03:28:42;;;;;;;4.05;2.13;;;;;;;15.15;48.46;101508.59;4978848;28;20050;-77
2022/08/23 03:31:10;;;;;;;2.92;1.60;;;;;;;15.02;48.81;101511.91;4967711;28;20029;-78
2022/08/23 03:33:46;;;;;;;4.68;2.17;;;;;;;14.83;49.56;101518.03;4987855;28;20061;-78
2022/08/23 03:36:12;;;;;;;4.00;2.53;;;;;;;14.81;49.53;101514.63;4983793;28;20030;-78
2022/08/23 03:38:39;;;;;;;5.25;2.28;;;;;;;14.80;49.33;101525.22;4970495;28;20034;-77
2022/08/23 03:41:07;;;;;;;3.22;2.65;;;;;;;14.77;49.54;101518.34;4958503;28;20086;-77
2022/08/23 03:43:33;;;;;;;2.83;2.10;;;;;;;14.81;49.28;101513.78;4971809;28;20047;-78
2022/08/23 03:45:59;;;;;;;3.80;2.42;;;;;;;14.87;48.83;101519.59;4968607;28;20031;-78
2022/08/23 03:48:25;;;;;;;5.25;2.40;;;;;;;14.90;48.14;101523.84;4948181;28;20445;-78
2022/08/23 03:50:51;;;;;;;5.72;2.60;;;;;;;14.88;48.56;101518.69;4955466;28;20542;-77
2022/08/23 03:53:17;;;;;;;6.47;2.88;;;;;;;14.87;48.36;101519.59;4946946;28;20097;-77
2022/08/23 03:55:45;;;;;;;3.53;2.63;;;;;;;14.97;47.91;101517.38;4964071;28;20030;-78
2022/08/23 03:58:15;;;;;;;2.67;2.22;;;;;;;15.03;47.67;101522.34;4962505;28;20042;-77
2022/08/23 04:00:41;;;;;;;3.67;2.42;;;;;;;15.04;47.73;101516.16;4965367;28;20034;-78
2022/08/23 04:03:07;;;;;;;3.75;2.85;;;;;;;15.06;47.39;101514.31;4961050;28;20046;-78
2022/08/23 04:05:45;;;;;;;4.43;2.65;;;;;;;15.01;47.72;101520.72;4983067;28;20516;-78
2022/08/23 04:08:16;;;;;;;3.22;1.85;;;;;;;14.96;47.39;101531.47;4980283;28;20042;-77
2022/08/23 04:10:41;;;;;;;5.72;2.70;;;;;;;14.87;47.77;101526.66;4964508;28;20377;-77
2022/08/23 04:13:07;;;;;;;2.58;1.80;;;;;;;14.85;47.86;101525.84;4978737;28;20045;-77
2022/08/23 04:15:34;;;;;;;5.18;1.83;;;;;;;14.70;48.48;101537.94;4968330;28;20077;-77
2022/08/23 04:18:00;;;;;;;7.88;2.38;;;;;;;14.67;48.48;101533.69;4982207;28;20034;-77
2022/08/23 04:20:26;;;;;;;3.85;2.05;;;;;;;14.64;48.45;101531.22;4971717;28;20065;-75
2022/08/23 04:22:56;;;;;;;3.50;2.15;;;;;;;14.69;48.55;101531.84;4960553;28;20050;-78
2022/08/23 04:25:25;;;;;;;3.10;2.30;;;;;;;14.70;48.35;101537.94;4966496;28;20031;-77
2022/08/23 04:27:50;;;;;;;4.50;1.88;;;;;;;14.73;48.51;101537.81;4976803;28;20229;-76
2022/08/23 04:30:18;;;;;;;4.57;2.00;;;;;;;14.74;48.32;101540.38;4983885;28;20038;-79
2022/08/23 04:32:45;;;;;;;2.42;2.00;;;;;;;14.72;48.75;101542.25;4952152;28;20051;-78
2022/08/23 04:35:10;;;;;;;3.17;1.70;;;;;;;14.74;48.61;101547.41;4951607;28;20150;-78
2022/08/23 04:37:36;;;;;;;2.55;2.15;;;;;;;14.70;48.43;101541.47;4952227;28;20134;-78
2022/08/23 04:42:49;;;;;;;2.65;2.08;;;;;;;14.65;48.75;101543.44;4988176;28;20623;-77
2022/08/23 04:45:15;;;;;;;3.53;1.33;;;;;;;14.63;49.01;101553.16;4992760;28;20054;-77
2022/08/23 04:47:45;;;;;;;2.45;1.88;;;;;;;14.58;48.84;101555.16;4964324;28;20118;-79
2022/08/23 04:50:11;;;;;;;3.22;2.08;;;;;;;14.52;49.19;101556.31;4983078;28;20113;-77
2022/08/23 04:52:54;;;;;;;3.30;1.80;;;;;;;14.59;49.02;101554.25;4964318;28;20125;-79
2022/08/23 04:55:20;;;;;;;3.80;2.35;;;;;;;14.53;49.06;101554.53;4947010;28;20676;-76
2022/08/23 04:57:58;;;;;;;3.42;3.10;;;;;;;14.53;49.22;101557.16;4967189;28;20055;-77
2022/08/23 05:00:27;;;;;;;6.75;3.38;;;;;;;14.62;49.06;101558.53;4949720;28;20071;-79
2022/08/23 05:02:54;;;;;;;6.72;2.97;;;;;;;14.74;48.41;101557.94;4967069;28;20046;-79
2022/08/23 05:05:20;;;;;;;2.80;2.08;;;;;;;14.88;47.93;101562.53;4964729;28;20037;-78
2022/08/23 05:07:46;;;;;;;4.00;2.13;;;;;;;14.97;47.76;101555.09;4974301;28;20034;-77
2022/08/23 05:10:15;;;;;;;3.45;2.92;;;;;;;15.03;47.27;101553.91;4971291;28;20029;-78
2022/08/23 05:12:44;;;;;;;;;;;;;;;15.16;47.06;101557.66;4970634;28;20038;-78
2022/08/23 05:15:10;;;;;;;4.05;2.90;;;;;;;15.16;46.96;101565.56;4985525;28;20041;-77
2022/08/23 05:17:41;;;;;;;5.30;2.78;;;;;;;15.23;47.14;101558.25;4955481;28;20043;-76
2022/08/23 05:20:09;;;;;;;4.60;2.83;;;;;;;15.37;46.47;101566.34;4962935;28;20030;-78
2022/08/23 05:22:37;;;;;;;5.47;2.38;;;;;;;15.75;45.52;101560.06;4991893;28;20046;-78
2022/08/23 05:25:50;;;;;;;4.47;2.80;;;;;;;16.43;44.43;101562.69;4971087;28;20035;-77
2022/08/23 05:28:27;;;;;;;5.57;2.30;;;;;;;17.72;40.84;101565.19;4970649;28;20035;-78
2022/08/23 05:31:06;;;;;;;3.67;1.80;;;;;;;18.97;39.25;101561.84;4979981;28;20085;-78
2022/08/23 05:33:41;;;;;;;2.10;1.90;;;;;;;20.19;36.72;101561.63;4994396;28;20043;-78
2022/08/23 05:36:10;;;;;;;2.33;1.25;;;;;;;21.19;34.63;101557.16;4961625;28;20034;-78
2022/08/23 05:38:37;;;;;;;3.10;1.45;;;;;;;21.45;34.37;101560.50;4957890;28;20070;-78
2022/08/23 05:41:04;;;;;;;7.03;1.73;;;;;;;22.52;31.60;101565.50;4964961;28;20537;-78
2022/08/23 05:43:30;;;;;;;3.38;1.75;;;;;;;23.27;31.25;101560.31;4976710;28;20045;-78
2022/08/23 05:46:04;;;;;;;5.95;2.10;;;;;;;23.50;29.83;101556.63;4985269;28;20042;-78
2022/08/23 05:48:34;;;;;;;2.90;1.70;;;;;;;23.76;29.66;101573.06;4993975;28;20046;-76
2022/08/23 05:51:20;;;;;;;2.05;1.15;;;;;;;23.29;29.69;101564.59;4971064;28;20031;-77
2022/08/23 05:53:46;;;;;;;2.17;1.35;;;;;;;23.60;29.53;101567.34;4951302;28;20055;-76
2022/08/23 05:56:14;;;;;;;9.77;1.70;;;;;;;23.65;29.78;101564.28;4949664;28;20129;-77
2022/08/23 05:58:40;;;;;;;4.70;1.67;;;;;;;23.68;29.25;101570.22;4986397;28;20093;-77
2022/08/23 06:01:06;;;;;;;3.75;1.38;;;;;;;24.20;29.32;101568.38;4964486;28;20018;-77
2022/08/23 06:03:32;;;;;;;3.95;1.20;;;;;;;24.83;28.04;101573.50;4984608;28;20428;-78
2022/08/23 06:05:59;;;;;;;3.05;1.45;;;;;;;25.08;27.46;101575.81;4973917;28;20061;-78
2022/08/23 06:08:25;;;;;;;1.92;1.67;;;;;;;25.12;28.31;101578.06;4949827;28;20043;-79
2022/08/23 06:11:11;;;;;;;2.20;1.30;;;;;;;25.62;27.00;101585.09;4945124;28;20051;-78
2022/08/23 06:13:43;;;;;;;5.38;1.15;;;;;;;25.73;26.96;101592.97;4976366;28;20058;-78
2022/08/23 06:16:11;;;;;;;4.95;1.63;;;;;;;26.23;25.94;101594.53;4941307;28;20436;-77
2022/08/23 06:18:36;;;;;;;4.53;1.52;;;;;;;26.40;25.87;101593.75;4961316;28;20030;-81
2022/08/23 06:21:24;;;;;;;2.22;1.55;;;;;;;25.99;25.92;101593.19;4975033;28;20046;-79
2022/08/23 06:23:50;;;;;;;4.60;1.50;;;;;;;26.65;25.36;101589.56;4976944;28;20113;-80
2022/08/23 06:26:19;;;;;;;1.45;1.15;;;;;;;25.80;26.21;101587.88;4970125;28;20101;-79
2022/08/23 06:28:48;;;;;;;4.45;1.17;;;;;;;26.36;25.64;101599.53;4984402;28;20428;-77
2022/08/23 06:31:14;;;;;;;4.10;1.20;;;;;;;26.70;25.33;101587.25;4972364;28;20034;-77
2022/08/23 06:33:54;;;;;;;6.63;1.45;;;;;;;26.97;24.92;101588.19;4983675;28;20145;-78
2022/08/23 06:36:36;;;;;;;2.28;1.30;;;;;;;26.63;25.99;101591.53;4972570;28;20229;-77
2022/08/23 06:39:34;;;;;;;5.70;1.88;;;;;;;26.85;25.20;101600.16;4977814;28;20046;-78
2022/08/23 06:42:18;;;;;;;3.65;1.80;;;;;;;27.43;24.72;101593.47;4973252;28;20097;-78
2022/08/23 06:44:44;;;;;;;3.20;0.93;;;;;;;27.65;24.96;101597.53;4986437;28;20033;-78
2022/08/23 06:47:22;;;;;;;3.28;1.20;;;;;;;27.89;23.90;101584.25;4965533;28;20130;-78
2022/08/23 06:49:48;;;;;;;3.63;1.38;;;;;;;27.81;24.16;101586.91;4970639;28;20125;-79
2022/08/23 06:52:15;;;;;;;1.50;0.85;;;;;;;27.63;24.80;101584.28;4984790;28;20274;-77
2022/08/23 06:54:54;;;;;;;2.75;1.67;;;;;;;27.09;25.48;101587.00;4970900;28;20097;-79
2022/08/23 06:57:38;;;;;;;3.70;1.17;;;;;;;27.98;24.19;101587.00;4985366;28;20042;-78
2022/08/23 07:00:23;;;;;;;2.20;1.00;;;;;;;28.48;23.62;101578.19;4989588;28;20192;-78
2022/08/23 07:03:11;;;;;;;3.92;0.75;;;;;;;28.29;24.50;101585.50;4974912;28;20050;-77
2022/08/23 07:05:55;;;;;;;2.60;1.10;;;;;;;28.48;23.79;101586.25;4994392;28;20065;-76
2022/08/23 07:08:25;;;;;;;3.10;1.30;;;;;;;28.63;23.56;101581.94;4982456;28;20042;-79
2022/08/23 07:10:50;;;;;;;4.10;1.20;;;;;;;28.86;23.20;101584.88;4966222;28;20084;-78
2022/08/23 07:13:16;;;;;;;2.33;1.42;;;;;;;29.39;22.44;101585.41;4964460;28;20042;-79
2022/08/23 07:15:42;;;;;;;4.13;1.15;;;;;;;29.92;21.88;101586.69;4985520;28;20405;-77
2022/08/23 07:18:12;;;;;;;2.13;1.10;;;;;;;30.65;21.49;101590.13;4969938;28;21363;-77
2022/08/23 07:20:37;;;;;;;4.20;0.90;;;;;;;30.06;22.13;101590.50;4981400;28;20030;-77
2022/08/23 07:23:04;;;;;;;2.22;1.20;;;;;;;29.95;22.54;101593.56;4957539;28;20038;-76
2022/08/23 07:25:31;;;;;;;4.40;1.20;;;;;;;30.20;21.32;101599.78;4968067;28;20046;-79
2022/08/23 07:28:00;;;;;;;4.95;1.10;;;;;;;30.43;21.22;101594.44;4959905;28;20100;-76
2022/08/23 07:30:26;;;;;;;3.58;1.25;;;;;;;30.59;20.91;101591.69;4965229;28;20058;-79
2022/08/23 07:32:52;;;;;;;5.32;2.22;;;;;;;30.69;21.69;101591.47;4978719;28;20085;-79
2022/08/23 07:35:22;;;;;;;2.92;1.13;;;;;;;31.74;20.16;101589.94;4968774;28;20022;-80
2022/08/23 07:37:49;;;;;;;4.43;1.05;;;;;;;31.92;19.64;101593.13;4982052;28;20037;-78
2022/08/23 07:40:18;;;;;;;1.60;0.80;;;;;;;32.22;18.85;101595.84;4980543;28;20089;-78
2022/08/23 07:42:44;;;;;;;2.63;1.05;;;;;;;31.07;20.76;101602.38;4987881;28;20459;-79
2022/08/23 07:45:10;;;;;;;13.73;4.05;;;;;;;30.63;21.42;101604.81;4947031;28;20122;-77
2022/08/23 07:47:37;;;;;;;4.07;0.70;;;;;;;31.49;20.25;101603.69;4968423;28;20101;-77
2022/08/23 07:50:05;;;;;;;5.10;1.05;;;;;;;31.21;20.50;101600.72;4944560;28;20053;-78
2022/08/23 07:52:32;;;;;;;4.90;1.15;;;;;;;31.77;19.84;101606.63;4962089;28;20089;-78
2022/08/23 07:54:57;;;;;;;4.90;1.08;;;;;;;30.66;21.42;101613.38;4946527;28;20042;-77
2022/08/23 07:57:29;;;;;;;2.95;1.10;;;;;;;31.26;20.28;101608.28;4961953;28;20067;-77
2022/08/23 08:00:10;;;;;;;4.35;0.70;;;;;;;31.64;20.29;101614.53;4950604;28;20031;-77
2022/08/23 08:02:47;;;;;;;4.13;1.45;;;;;;;31.25;20.34;101617.38;4962918;28;20513;-79
2022/08/23 08:05:19;;;;;;;4.30;0.98;;;;;;;31.37;20.29;101616.78;4964914;28;20074;-76
2022/08/23 08:07:45;;;;;;;7.80;2.22;;;;;;;32.02;19.62;101615.34;4973477;28;20069;-78
2022/08/23 08:10:11;;;;;;;3.45;0.98;;;;;;;31.90;20.07;101622.22;4978001;28;20400;-77
2022/08/23 08:12:37;;;;;;;6.43;2.40;;;;;;;31.41;19.83;101617.28;4965857;28;20035;-80
2022/08/23 08:15:13;;;;;;;8.70;1.08;;;;;;;31.00;20.49;101623.81;4949405;28;20059;-77
2022/08/23 08:17:39;;;;;;;1.60;0.60;;;;;;;31.34;21.01;101622.56;4965754;28;20089;-79
2022/08/23 08:20:14;;;;;;;1.48;0.82;;;;;;;31.77;20.01;101625.56;4969421;28;20176;-76
2022/08/23 08:22:42;;;;;;;6.05;1.30;;;;;;;31.70;19.33;101621.09;4969944;28;20073;-77
2022/08/23 08:25:34;;;;;;;6.43;1.35;;;;;;;31.37;20.24;101624.88;4982865;28;20129;-76
2022/08/23 08:28:03;;;;;;;2.55;1.50;;;;;;;31.77;19.51;101627.41;4954331;28;20070;-77
2022/08/23 08:30:29;;;;;;;6.78;1.30;;;;;;;31.53;19.73;101629.31;4963498;28;20039;-76
2022/08/23 08:32:56;;;;;;;4.72;1.80;;;;;;;31.36;19.98;101631.31;4970365;28;20046;-77
2022/08/23 08:35:23;;;;;;;4.65;1.13;;;;;;;30.84;20.53;101633.84;4975710;28;20105;-78
2022/08/23 08:37:49;;;;;;;2.05;0.93;;;;;;;31.07;20.34;101625.78;4973906;28;20038;-77
2022/08/23 08:40:23;;;;;;;5.60;1.25;;;;;;;31.64;19.95;101624.50;4980800;28;20030;-77
2022/08/23 08:43:09;;;;;;;2.63;1.00;;;;;;;30.96;20.51;101627.03;4962610;28;20081;-81
2022/08/23 08:45:57;;;;;;;3.67;0.90;;;;;;;31.59;19.83;101631.31;4987876;28;20125;-78
2022/08/23 08:48:25;;;;;;;9.10;1.10;;;;;;;31.37;20.04;101632.16;4972803;28;20523;-77
2022/08/23 08:50:59;;;;;;;2.83;0.73;;;;;;;31.40;19.69;101620.97;4971840;28;20084;-77
2022/08/23 08:53:42;;;;;;;4.78;1.60;;;;;;;30.04;20.82;101618.66;4975648;28;20038;-78
2022/08/23 08:56:31;;;;;;;1.88;1.10;;;;;;;29.75;21.40;101622.75;4979408;28;20034;-79
2022/08/23 08:59:12;;;;;;;3.40;1.15;;;;;;;30.07;22.01;101626.41;4982939;28;20118;-79
2022/08/23 09:01:38;;;;;;;4.45;1.15;;;;;;;30.27;21.15;101630.41;4986880;28;20120;-75
2022/08/23 09:04:05;;;;;;;4.40;0.93;;;;;;;29.93;21.23;101620.72;4966008;28;20142;-77
2022/08/23 09:07:13;;;;;;;5.85;0.80;;;;;;;30.34;22.00;101630.56;4985606;28;20093;-77
2022/08/23 09:10:11;;;;;;;4.20;1.17;;;;;;;29.69;21.75;101620.78;4983908;28;20049;-79
2022/08/23 09:13:05;;;;;;;2.33;1.00;;;;;;;28.78;22.99;101621.66;4956300;28;20134;-77
2022/08/23 09:15:48;;;;;;;3.92;2.30;;;;;;;28.30;23.89;101624.81;4992200;28;20405;-77
2022/08/23 09:18:15;;;;;;;4.80;0.65;;;;;;;27.55;25.08;101629.00;4985755;28;20061;-76
2022/08/23 09:20:44;;;;;;;7.30;1.10;;;;;;;27.25;24.88;101628.38;4970770;28;20359;-78
2022/08/23 09:23:35;;;;;;;4.47;0.80;;;;;;;27.51;25.32;101623.09;4968159;28;20109;-77
2022/08/23 09:26:14;;;;;;;2.60;0.90;;;;;;;27.75;25.38;101621.63;4965087;28;20051;-77
2022/08/23 09:28:39;;;;;;;2.33;0.98;;;;;;;28.11;24.69;101623.19;4980265;28;20061;-78
2022/08/23 09:31:06;;;;;;;2.85;1.30;;;;;;;28.11;24.96;101625.03;4967496;28;20034;-78
2022/08/23 09:33:41;;;;;;;3.75;1.38;;;;;;;28.18;24.93;101609.13;4970350;28;20513;-80
2022/08/23 09:36:22;;;;;;;5.45;1.02;;;;;;;29.22;23.84;101618.75;4967632;28;20049;-79
2022/08/23 09:39:27;;;;;;;2.55;0.88;;;;;;;28.85;23.47;101622.69;4979420;28;20031;-79
2022/08/23 09:41:54;;;;;;;1.65;0.95;;;;;;;28.39;23.80;101620.34;4983494;28;20165;-77
2022/08/23 09:44:37;;;;;;;4.00;1.35;;;;;;;28.13;23.74;101620.38;4974594;28;20126;-77
2022/08/23 09:47:12;;;;;;;4.97;0.90;;;;;;;28.39;24.13;101622.16;4960822;28;20070;-79
2022/08/23 09:49:46;;;;;;;3.95;1.00;;;;;;;28.20;24.33;101621.41;4972288;28;20030;-78
2022/08/23 09:52:26;;;;;;;3.03;0.90;;;;;;;28.17;24.13;101619.06;4971953;28;20046;-75
2022/08/23 09:55:01;;;;;;;3.97;2.00;;;;;;;29.73;23.73;101616.72;4965317;28;20117;-78
2022/08/23 09:57:32;;;;;;;2.97;0.93;;;;;;;30.68;21.37;101618.63;4979087;28;20402;-78
2022/08/23 10:00:23;;;;;;;2.72;0.80;;;;;;;29.64;21.95;101620.41;4951327;28;20101;-76
2022/08/23 10:02:56;;;;;;;7.10;1.88;;;;;;;28.36;22.93;101622.50;4954440;28;20157;-78
2022/08/23 10:05:40;;;;;;;;;;;;;;;28.51;22.86;101620.88;4953023;28;20034;-78
2022/08/23 10:08:22;;;;;;;1.50;0.90;;;;;;;28.92;23.59;101623.69;4981184;28;20276;-78
2022/08/23 10:10:52;;;;;;;5.68;0.90;;;;;;;28.62;23.78;101617.91;4968373;28;20101;-78
2022/08/23 10:13:27;;;;;;;1.88;0.95;;;;;;;29.24;23.78;101614.88;4989954;28;20149;-76
2022/08/23 10:15:53;;;;;;;15.73;9.10;;;;;;;29.79;22.64;101616.00;4984598;28;20059;-79
2022/08/23 10:18:27;;;;;;;2.45;0.95;;;;;;;29.39;23.52;101615.00;4966410;28;20045;-78
2022/08/23 10:21:24;;;;;;;2.38;0.80;;;;;;;29.13;22.94;101607.97;4999911;28;20029;-77
2022/08/23 10:24:21;;;;;;;2.30;1.25;;;;;;;29.75;22.74;101614.69;4959807;28;20698;-77
2022/08/23 10:29:35;;;;;;;5.75;1.38;;;;;;;29.31;22.62;101606.97;4990196;28;20033;-77
2022/08/23 10:30:01;;;;;;;6.20;1.33;;;;;;;29.15;22.79;101614.03;4963736;28;20077;-78
2022/08/23 10:32:44;;;;;;;3.47;1.17;;;;;;;29.10;23.49;101605.59;4954204;28;20614;-77
2022/08/23 10:35:29;;;;;;;3.70;0.98;;;;;;;29.22;23.79;101603.44;4982742;28;20100;-78
2022/08/23 10:38:23;;;;;;;3.70;0.82;;;;;;;29.06;23.43;101606.91;4988135;28;20077;-76
2022/08/23 10:41:24;;;;;;;4.22;1.08;;;;;;;28.87;22.88;101601.84;4989176;28;20038;-80
2022/08/23 10:44:33;;;;;;;4.30;0.77;;;;;;;29.93;21.62;101601.84;4941769;28;20060;-78
2022/08/23 10:47:36;;;;;;;6.82;1.52;;;;;;;29.73;21.44;101600.56;5010932;28;20094;-77
2022/08/23 10:50:08;;;;;;;7.18;1.40;;;;;;;29.21;22.47;101595.50;4998517;28;20044;-77
2022/08/23 10:52:47;;;;;;;4.28;0.85;;;;;;;28.21;23.34;101600.75;4970659;28;20632;-77
2022/08/23 10:56:05;;;;;;;4.13;1.10;;;;;;;27.76;23.75;101607.19;4972335;28;20033;-75
2022/08/23 10:58:45;;;;;;;2.83;1.23;;;;;;;27.86;23.79;101595.34;4966240;28;20382;-78
2022/08/23 11:01:19;;;;;;;4.10;1.17;;;;;;;27.86;23.82;101602.56;4983830;28;20030;-78
2022/08/23 11:04:08;;;;;;;17.25;7.65;;;;;;;27.81;23.20;101597.66;4978956;28;20080;-81
2022/08/23 11:06:57;;;;;;;4.43;3.00;;;;;;;27.46;24.05;101594.03;4977398;28;20078;-77
2022/08/23 11:09:24;;;;;;;1.42;0.73;;;;;;;28.03;22.92;101603.47;4984426;28;20096;-76
2022/08/23 11:12:01;;;;;;;7.60;1.70;;;;;;;28.48;23.17;101595.16;4979162;28;20049;-78
2022/08/23 11:14:37;;;;;;;7.68;1.05;;;;;;;29.24;22.48;101595.16;4957158;28;20031;-77
2022/08/23 11:17:10;;;;;;;5.00;1.20;;;;;;;28.33;22.29;101592.25;4969114;28;20038;-80
2022/08/23 11:19:53;;;;;;;4.35;1.40;;;;;;;28.20;22.90;101583.78;4969663;28;20037;-78
2022/08/23 11:22:24;;;;;;;15.88;5.53;;;;;;;28.66;22.59;101587.00;4985494;28;20073;-79
2022/08/23 11:24:53;;;;;;;5.15;1.27;;;;;;;29.14;22.44;101580.03;4985678;28;20057;-79
2022/08/23 11:27:36;;;;;;;5.32;1.00;;;;;;;29.43;22.09;101584.06;4966762;28;20497;-79
2022/08/23 11:30:33;;;;;;;2.22;1.15;;;;;;;29.32;22.03;101587.09;4969868;28;20033;-77
2022/08/23 11:33:23;;;;;;;3.40;0.77;;;;;;;29.55;22.14;101582.72;4984465;28;20570;-78
2022/08/23 11:36:15;;;;;;;5.03;0.93;;;;;;;29.22;22.22;101575.69;4969573;28;20393;-78
2022/08/23 11:38:42;;;;;;;2.50;0.80;;;;;;;29.20;22.50;101583.06;4960095;28;20138;-79
2022/08/23 11:41:32;;;;;;;1.85;0.82;;;;;;;30.57;21.27;101585.63;4945017;28;20983;-77
2022/08/23 11:44:00;;;;;;;3.00;1.20;;;;;;;30.46;20.78;101577.06;4940797;28;20063;-76
2022/08/23 11:46:26;;;;;;;6.68;1.30;;;;;;;29.48;21.35;101576.28;4970593;28;20045;-78
2022/08/23 11:49:28;;;;;;;3.78;1.08;;;;;;;29.43;22.02;101580.53;4964156;28;20047;-79
2022/08/23 11:52:11;;;;;;;3.95;1.48;;;;;;;29.37;21.96;101582.03;4959371;28;20225;-79
2022/08/23 11:55:02;;;;;;;6.25;1.08;;;;;;;30.11;20.90;101576.53;4949837;28;20085;-78
2022/08/23 11:57:33;;;;;;;4.90;1.33;;;;;;;29.62;20.81;101585.59;4981757;28;20485;-79
2022/08/23 12:00:13;;;;;;;1.58;0.60;;;;;;;29.99;20.67;101579.59;4979107;28;20038;-81
2022/08/23 12:03:03;;;;;;;6.13;0.68;;;;;;;29.51;21.51;101570.59;4984888;28;20053;-81